createdAt,value
2023-03-12T00:02:09.883Z,83.12
2023-03-12T00:04:36.662Z,82.88
2023-03-12T00:07:06.459Z,83.78
2023-03-12T00:09:38.488Z,83.72
2023-03-12T00:12:05.916Z,84.25
2023-03-12T00:14:33.377Z,83.58
2023-03-12T00:17:00.256Z,83.82
2023-03-12T00:19:26.924Z,82.94
2023-03-12T00:21:53.878Z,84.12
2023-03-12T00:24:20.564Z,83.91
2023-03-12T00:26:47.702Z,84.80
2023-03-12T00:29:14.327Z,83.82
2023-03-12T00:31:40.936Z,83.48
2023-03-12T00:34:07.720Z,83.36
2023-03-12T00:36:34.703Z,83.34
2023-03-12T00:39:02.063Z,83.31
2023-03-12T00:41:30.226Z,83.88
2023-03-12T00:43:57.498Z,83.35
2023-03-12T00:46:24.771Z,83.72
2023-03-12T00:48:51.786Z,83.38
2023-03-12T00:51:19.479Z,83.81
2023-03-12T00:53:46.388Z,83.61
2023-03-12T00:56:13.653Z,83.57
2023-03-12T00:58:42.613Z,83.92
2023-03-12T01:01:10.269Z,83.07
2023-03-12T01:03:37.466Z,82.77
2023-03-12T01:06:05.504Z,83.07
2023-03-12T01:08:32.641Z,82.89
2023-03-12T01:10:59.569Z,83.32
2023-03-12T01:13:26.453Z,83.01
2023-03-12T01:15:53.177Z,83.91
2023-03-12T01:18:20.861Z,83.17
2023-03-12T01:20:47.669Z,83.15
2023-03-12T01:23:14.575Z,83.16
2023-03-12T01:25:42.066Z,82.82
2023-03-12T01:28:09.571Z,83.20
2023-03-12T01:30:36.605Z,82.73
2023-03-12T01:33:03.524Z,83.23
2023-03-12T01:35:30.785Z,82.88
2023-03-12T01:37:57.872Z,82.37
2023-03-12T01:40:28.935Z,82.50
2023-03-12T01:42:57.691Z,82.29
2023-03-12T01:46:02.905Z,82.85
2023-03-12T01:48:34.050Z,82.30
2023-03-12T01:51:02.462Z,83.28
2023-03-12T01:53:30.216Z,82.65
2023-03-12T01:55:58.495Z,82.74
2023-03-12T01:58:27.533Z,82.73
2023-03-12T02:00:54.881Z,82.10
2023-03-12T02:03:22.346Z,82.76
2023-03-12T02:05:55.614Z,83.27
2023-03-12T02:08:24.146Z,82.41
2023-03-12T02:10:51.379Z,81.92
2023-03-12T02:13:18.525Z,78.54
2023-03-12T02:15:45.562Z,77.53
2023-03-12T02:18:16.652Z,77.61
2023-03-12T02:21:08.343Z,79.21
2023-03-12T02:23:47.710Z,78.04
2023-03-12T02:26:15.755Z,75.53
2023-03-12T02:28:45.857Z,78.87
2023-03-12T02:31:17.847Z,77.00
2023-03-12T02:33:44.938Z,73.62
2023-03-12T02:36:11.917Z,73.04
2023-03-12T02:39:05.816Z,73.39
2023-03-12T02:41:36.270Z,71.95
2023-03-12T02:44:09.951Z,72.02
2023-03-12T02:46:46.689Z,72.27
2023-03-12T02:49:14.263Z,73.34
2023-03-12T02:51:42.208Z,74.17
2023-03-12T02:54:10.137Z,72.37
2023-03-12T02:56:37.372Z,71.19
2023-03-12T02:59:05.346Z,71.06
2023-03-12T03:01:35.295Z,71.30
2023-03-12T03:04:04.047Z,69.95
2023-03-12T03:06:32.356Z,71.02
2023-03-12T03:08:59.691Z,70.36
2023-03-12T03:11:27.032Z,69.97
2023-03-12T03:13:55.144Z,68.57
2023-03-12T03:16:23.303Z,68.76
2023-03-12T03:18:50.882Z,69.22
2023-03-12T03:21:18.374Z,68.42
2023-03-12T03:23:47.776Z,69.13
2023-03-12T03:26:15.783Z,69.82
2023-03-12T03:31:08.751Z,69.98
2023-03-12T03:33:37.899Z,69.63
2023-03-12T03:36:07.730Z,68.05
2023-03-12T03:38:35.180Z,68.22
2023-03-12T03:41:03.022Z,68.11
2023-03-12T03:43:30.007Z,68.79
2023-03-12T03:46:03.334Z,68.32
2023-03-12T03:48:31.119Z,67.98
2023-03-12T03:51:01.908Z,69.58
2023-03-12T03:53:29.279Z,68.58
2023-03-12T03:55:55.858Z,68.99
2023-03-12T03:58:23.013Z,68.18
2023-03-12T04:00:49.951Z,68.30
2023-03-12T04:03:16.512Z,69.23
2023-03-12T04:05:46.081Z,68.24
2023-03-12T04:08:13.638Z,68.05
2023-03-12T04:10:40.486Z,68.68
2023-03-12T04:13:07.776Z,68.36
2023-03-12T04:15:34.724Z,69.15
2023-03-12T04:18:02.086Z,69.38
2023-03-12T04:20:29.004Z,68.75
2023-03-12T04:22:58.334Z,69.96
2023-03-12T04:25:25.190Z,69.65
2023-03-12T04:27:51.854Z,68.64
2023-03-12T04:30:18.553Z,69.37
2023-03-12T04:32:46.273Z,70.68
2023-03-12T04:35:12.913Z,69.83
2023-03-12T04:37:39.840Z,72.13
2023-03-12T04:40:08.305Z,71.14
2023-03-12T04:42:35.598Z,71.99
2023-03-12T04:45:05.339Z,70.75
2023-03-12T04:47:33.505Z,72.82
2023-03-12T04:50:00.374Z,72.48
2023-03-12T04:52:28.178Z,72.74
2023-03-12T04:54:55.135Z,74.84
2023-03-12T04:57:21.806Z,75.66
2023-03-12T04:59:48.757Z,76.32
2023-03-12T05:02:15.520Z,76.71
2023-03-12T05:04:42.572Z,78.63
2023-03-12T05:07:09.536Z,78.63
2023-03-12T05:09:36.580Z,79.89
2023-03-12T05:12:03.457Z,80.21
2023-03-12T05:14:30.865Z,80.91
2023-03-12T05:16:57.797Z,81.16
2023-03-12T05:19:24.431Z,82.45
2023-03-12T05:21:51.236Z,83.93
2023-03-12T05:24:18.935Z,85.37
2023-03-12T05:26:45.625Z,84.51
2023-03-12T05:29:13.630Z,85.24
2023-03-12T05:31:41.224Z,85.67
2023-03-12T05:34:12.475Z,86.05
2023-03-12T05:36:39.933Z,86.50
2023-03-12T05:39:07.142Z,86.99
2023-03-12T05:41:34.691Z,86.81
2023-03-12T05:44:01.755Z,86.67
2023-03-12T05:46:29.137Z,85.53
2023-03-12T05:48:56.950Z,85.81
2023-03-12T05:51:23.928Z,85.90
2023-03-12T05:53:51.246Z,85.54
2023-03-12T05:56:17.932Z,85.73
2023-03-12T05:58:44.896Z,85.69
2023-03-12T06:01:18.071Z,86.52
2023-03-12T06:03:45.645Z,87.18
2023-03-12T06:06:13.474Z,87.27
2023-03-12T06:08:41.913Z,87.62
2023-03-12T06:11:09.202Z,87.65
2023-03-12T06:13:36.369Z,87.51
2023-03-12T06:16:15.563Z,87.24
2023-03-12T06:18:42.610Z,87.83
2023-03-12T06:21:17.864Z,88.26
2023-03-12T06:23:46.732Z,86.31
2023-03-12T06:26:14.134Z,85.86
2023-03-12T06:28:42.024Z,85.71
2023-03-12T06:31:09.042Z,85.30
2023-03-12T06:33:36.562Z,84.20
2023-03-12T06:36:05.714Z,84.46
2023-03-12T06:38:33.668Z,83.28
2023-03-12T06:41:03.391Z,84.35
2023-03-12T06:43:32.693Z,84.65
2023-03-12T06:46:00.510Z,83.48
2023-03-12T06:48:33.426Z,84.18
2023-03-12T06:51:00.411Z,82.91
2023-03-12T06:53:27.448Z,81.72
2023-03-12T06:55:54.090Z,82.79
2023-03-12T06:58:20.809Z,84.27
2023-03-12T07:00:50.423Z,83.32
2023-03-12T07:03:17.600Z,84.48
2023-03-12T07:05:45.702Z,84.01
2023-03-12T07:08:13.652Z,84.15
2023-03-12T07:10:40.894Z,83.10
2023-03-12T07:13:09.098Z,83.62
2023-03-12T07:15:35.678Z,84.47
2023-03-12T07:18:10.283Z,84.99
2023-03-12T07:20:39.901Z,83.83
2023-03-12T07:23:08.157Z,84.55
2023-03-12T07:25:37.199Z,83.94
2023-03-12T07:28:04.765Z,84.54
2023-03-12T07:30:33.560Z,84.10
2023-03-12T07:33:06.164Z,83.20
2023-03-12T07:35:33.014Z,84.37
2023-03-12T07:38:01.784Z,84.08
2023-03-12T07:40:29.051Z,83.05
2023-03-12T07:42:56.532Z,83.92
2023-03-12T07:45:23.833Z,84.60
2023-03-12T07:47:51.833Z,84.44
2023-03-12T07:50:19.526Z,84.33
2023-03-12T07:52:49.261Z,83.99
2023-03-12T07:55:16.560Z,84.56
2023-03-12T07:57:43.506Z,84.23
2023-03-12T08:00:11.116Z,84.15
2023-03-12T08:02:38.690Z,83.09
2023-03-12T08:05:07.703Z,84.46
2023-03-12T08:07:35.665Z,83.58
2023-03-12T08:10:07.448Z,83.44
2023-03-12T08:12:35.451Z,83.16
2023-03-12T08:15:03.319Z,83.45
2023-03-12T08:17:30.784Z,83.83
2023-03-12T08:19:57.490Z,82.98
2023-03-12T08:22:24.725Z,83.16
2023-03-12T08:24:51.346Z,84.08
2023-03-12T08:27:18.683Z,82.97
2023-03-12T08:29:45.800Z,83.90
2023-03-12T08:32:14.149Z,83.35
2023-03-12T08:34:40.951Z,83.38
2023-03-12T08:37:08.219Z,84.62
2023-03-12T08:39:35.215Z,84.03
2023-03-12T08:42:02.634Z,84.39
2023-03-12T08:44:29.848Z,83.71
2023-03-12T08:46:57.023Z,84.05
2023-03-12T08:49:24.006Z,84.43
2023-03-12T08:51:53.536Z,84.86
2023-03-12T08:54:21.645Z,84.70
2023-03-12T08:56:52.483Z,84.20
2023-03-12T08:59:22.200Z,83.82
2023-03-12T09:01:49.842Z,84.34
2023-03-12T09:04:17.211Z,84.82
2023-03-12T09:06:44.495Z,87.19
2023-03-12T09:09:11.754Z,86.39
2023-03-12T09:11:39.800Z,87.34
2023-03-12T09:15:00.984Z,87.75
2023-03-12T09:16:54.352Z,87.75
2023-03-12T09:19:21.501Z,84.54
2023-03-12T09:21:48.799Z,85.67
2023-03-12T09:24:15.965Z,85.99
2023-03-12T09:26:42.512Z,85.74
2023-03-12T09:29:09.679Z,85.65
2023-03-12T09:31:36.549Z,86.29
2023-03-12T09:34:04.707Z,87.53
2023-03-12T09:36:31.981Z,89.02
2023-03-12T09:38:59.391Z,88.77
2023-03-12T09:41:30.300Z,88.56
2023-03-12T09:44:02.566Z,89.28
2023-03-12T09:46:37.567Z,88.88
2023-03-12T09:49:22.976Z,88.46
2023-03-12T09:51:56.394Z,87.32
2023-03-12T09:54:42.818Z,87.54
2023-03-12T09:57:14.571Z,87.48
2023-03-12T09:59:41.922Z,87.27
2023-03-12T10:02:32.262Z,86.85
2023-03-12T10:05:06.444Z,87.19
2023-03-12T10:07:45.803Z,86.89
2023-03-12T10:10:35.599Z,86.84
2023-03-12T10:13:18.610Z,85.68
2023-03-12T10:16:10.301Z,85.22
2023-03-12T10:18:49.213Z,84.78
2023-03-12T10:21:54.751Z,83.64
2023-03-12T10:24:36.633Z,84.98
2023-03-12T10:27:22.530Z,84.17
2023-03-12T10:29:52.515Z,84.79
2023-03-12T10:32:24.914Z,84.28
2023-03-12T10:35:03.127Z,83.96
2023-03-12T10:37:42.306Z,83.84
2023-03-12T10:40:16.185Z,83.66
2023-03-12T10:42:43.659Z,84.52
2023-03-12T10:45:10.424Z,83.54
2023-03-12T10:47:42.642Z,82.74
2023-03-12T10:50:24.829Z,83.87
2023-03-12T10:53:12.687Z,84.14
2023-03-12T10:55:40.311Z,83.68
2023-03-12T10:58:10.131Z,82.63
2023-03-12T11:00:36.995Z,83.49
2023-03-12T11:03:18.761Z,82.72
2023-03-12T11:05:49.551Z,82.07
2023-03-12T11:08:24.189Z,82.89
2023-03-12T11:10:50.869Z,82.99
2023-03-12T11:13:24.515Z,81.93
2023-03-12T11:15:52.804Z,82.33
2023-03-12T11:18:38.393Z,82.21
2023-03-12T11:21:12.834Z,81.18
2023-03-12T11:23:48.191Z,80.71
2023-03-12T11:27:16.476Z,80.95
2023-03-12T11:29:48.637Z,80.92
2023-03-12T11:32:42.918Z,80.54
2023-03-12T11:39:51.556Z,80.29
2023-03-12T11:42:38.293Z,81.77
2023-03-12T11:45:28.884Z,80.53
2023-03-12T11:48:34.985Z,80.63
2023-03-12T11:51:19.147Z,80.15
2023-03-12T11:54:08.454Z,81.38
2023-03-12T11:56:48.960Z,81.59
2023-03-12T11:59:41.365Z,82.02
2023-03-12T12:02:47.460Z,82.89
2023-03-12T12:05:20.899Z,81.03
2023-03-12T12:07:55.365Z,80.61
2023-03-12T12:10:31.332Z,79.94
2023-03-12T12:13:14.184Z,80.86
2023-03-12T12:15:57.011Z,78.79
2023-03-12T12:18:36.213Z,78.65
2023-03-12T12:21:26.221Z,77.68
2023-03-12T12:24:07.060Z,77.53
2023-03-12T12:26:43.159Z,78.44
2023-03-12T12:29:28.713Z,78.13
2023-03-12T12:31:58.088Z,77.78
2023-03-12T12:35:07.943Z,78.93
2023-03-12T12:37:42.993Z,78.37
2023-03-12T12:40:20.578Z,79.59
2023-03-12T12:43:02.444Z,76.98
2023-03-12T12:45:31.135Z,77.71
2023-03-12T12:48:12.164Z,76.36
2023-03-12T12:50:39.848Z,75.59
2023-03-12T12:53:15.651Z,75.14
2023-03-12T12:56:14.908Z,75.20
2023-03-12T12:59:12.673Z,75.33
2023-03-12T13:01:39.900Z,73.77
2023-03-12T13:04:14.843Z,72.86
2023-03-12T13:07:24.090Z,70.97
2023-03-12T13:09:54.880Z,70.65
2023-03-12T13:12:24.693Z,69.87
2023-03-12T13:14:54.663Z,69.72
2023-03-12T13:17:34.763Z,68.37
2023-03-12T13:20:05.850Z,68.12
2023-03-12T13:23:03.132Z,69.45
2023-03-12T13:25:50.475Z,69.20
2023-03-12T13:28:30.361Z,69.18
2023-03-12T13:30:59.983Z,69.55
2023-03-12T13:33:45.245Z,68.60
2023-03-12T13:36:23.725Z,70.96
2023-03-12T13:39:05.844Z,71.46
2023-03-12T13:41:45.392Z,73.92
2023-03-12T13:44:27.247Z,77.33
2023-03-12T13:47:22.672Z,77.36
2023-03-12T13:49:53.187Z,79.10
2023-03-12T13:52:42.233Z,78.47
2023-03-12T13:55:24.736Z,77.94
2023-03-12T13:58:17.836Z,77.05
2023-03-12T14:01:06.766Z,77.14
2023-03-12T14:03:42.456Z,75.45
2023-03-12T14:06:14.489Z,74.69
2023-03-12T14:09:07.871Z,76.31
2023-03-12T14:11:38.751Z,74.67
2023-03-12T14:14:20.583Z,75.57
2023-03-12T14:16:50.664Z,74.95
2023-03-12T14:19:22.616Z,74.20
2023-03-12T14:21:51.114Z,73.94
2023-03-12T14:24:33.131Z,74.31
2023-03-12T14:27:02.562Z,74.43
2023-03-12T14:29:46.580Z,73.86
2023-03-12T14:32:22.375Z,74.29
2023-03-12T14:35:23.267Z,71.90
2023-03-12T14:38:28.518Z,72.86
2023-03-12T14:41:01.636Z,72.41
2023-03-12T14:43:32.630Z,72.96
2023-03-12T14:46:06.260Z,72.02
2023-03-12T14:48:35.829Z,71.46
2023-03-12T14:51:05.865Z,71.51
2023-03-12T14:53:38.177Z,71.39
2023-03-12T14:56:14.383Z,72.41
2023-03-12T14:58:48.222Z,72.03
2023-03-12T15:01:20.924Z,74.75
2023-03-12T15:03:55.474Z,72.96
2023-03-12T15:06:30.069Z,73.58
2023-03-12T15:08:59.288Z,70.68
2023-03-12T15:11:28.271Z,67.01
2023-03-12T15:14:00.986Z,67.84
2023-03-12T15:16:29.193Z,69.26
2023-03-12T15:18:56.981Z,66.23
2023-03-12T15:21:24.583Z,66.71
2023-03-12T15:23:52.141Z,67.62
2023-03-12T15:26:21.645Z,67.58
2023-03-12T15:29:19.263Z,69.11
2023-03-12T15:31:49.902Z,68.90
2023-03-12T15:34:47.025Z,70.22
2023-03-12T15:37:34.884Z,69.92
2023-03-12T15:40:06.305Z,68.74
2023-03-12T15:42:59.135Z,66.41
2023-03-12T15:45:34.880Z,68.38
2023-03-12T15:48:02.442Z,67.89
2023-03-12T15:50:41.585Z,68.31
2023-03-12T15:53:11.947Z,69.12
2023-03-12T15:55:39.542Z,69.66
2023-03-12T15:58:27.388Z,69.05
2023-03-12T16:00:54.567Z,71.19
2023-03-12T16:03:22.410Z,71.07
2023-03-12T16:05:50.422Z,70.63
2023-03-12T16:08:25.786Z,71.06
2023-03-12T16:10:55.766Z,70.89
2023-03-12T16:13:31.254Z,72.19
2023-03-12T16:16:01.584Z,71.46
2023-03-12T16:18:30.699Z,70.19
2023-03-12T16:20:58.515Z,70.19
2023-03-12T16:23:26.290Z,69.75
2023-03-12T16:25:55.819Z,69.83
2023-03-12T16:28:23.721Z,71.17
2023-03-12T16:30:52.036Z,69.85
2023-03-12T16:33:21.427Z,70.57
2023-03-12T16:35:48.486Z,69.88
2023-03-12T16:38:15.690Z,70.46
2023-03-12T16:40:48.469Z,69.63
2023-03-12T16:43:22.788Z,70.68
2023-03-12T16:45:51.831Z,70.43
2023-03-12T16:48:22.988Z,71.80
2023-03-12T16:50:57.692Z,69.99
2023-03-12T16:53:25.757Z,72.06
2023-03-12T16:55:59.785Z,70.01
2023-03-12T16:58:28.183Z,69.23
2023-03-12T17:00:56.020Z,69.04
2023-03-12T17:03:26.603Z,70.13
2023-03-12T17:05:53.770Z,69.32
2023-03-12T17:08:20.922Z,68.32
2023-03-12T17:10:47.832Z,69.63
2023-03-12T17:13:19.538Z,71.48
2023-03-12T17:15:49.542Z,70.80
2023-03-12T17:18:17.563Z,68.71
2023-03-12T17:20:45.233Z,68.55
2023-03-12T17:23:12.631Z,72.08
2023-03-12T17:25:42.186Z,72.43
2023-03-12T17:28:09.908Z,71.42
2023-03-12T17:30:38.161Z,68.51
2023-03-12T17:33:11.498Z,68.69
2023-03-12T17:35:39.701Z,71.52
2023-03-12T17:38:07.175Z,72.13
2023-03-12T17:40:35.538Z,72.30
2023-03-12T17:43:02.785Z,72.32
2023-03-12T17:45:30.765Z,73.30
2023-03-12T17:47:57.650Z,70.45
2023-03-12T17:50:24.439Z,68.83
2023-03-12T17:52:51.801Z,71.65
2023-03-12T17:55:19.199Z,67.70
2023-03-12T17:57:46.110Z,68.37
2023-03-12T18:00:13.382Z,70.25
2023-03-12T18:02:42.686Z,70.68
2023-03-12T18:05:11.545Z,72.47
2023-03-12T18:07:40.821Z,72.91
2023-03-12T18:10:11.096Z,74.09
2023-03-12T18:12:40.168Z,72.65
2023-03-12T18:15:10.868Z,72.83
2023-03-12T18:17:38.408Z,72.32
2023-03-12T18:20:09.601Z,72.18
2023-03-12T18:22:41.179Z,71.10
2023-03-12T18:25:08.556Z,71.87
2023-03-12T18:27:36.561Z,71.25
2023-03-12T18:30:04.109Z,71.97
2023-03-12T18:32:31.262Z,72.89
2023-03-12T18:34:58.083Z,72.04
2023-03-12T18:37:24.853Z,74.09
2023-03-12T18:39:51.686Z,74.75
2023-03-12T18:42:18.611Z,73.73
2023-03-12T18:44:45.336Z,73.40
2023-03-12T18:47:12.219Z,72.06
2023-03-12T18:49:38.995Z,72.78
2023-03-12T18:52:05.755Z,73.72
2023-03-12T18:54:33.629Z,70.03
2023-03-12T18:57:00.920Z,72.71
2023-03-12T18:59:28.821Z,70.44
2023-03-12T19:01:56.866Z,70.67
2023-03-12T19:04:23.799Z,72.24
2023-03-12T19:06:51.849Z,70.02
2023-03-12T19:09:19.648Z,72.39
2023-03-12T19:11:47.925Z,72.12
2023-03-12T19:14:15.259Z,72.35
2023-03-12T19:16:43.346Z,72.84
2023-03-12T19:19:10.099Z,73.98
2023-03-12T19:21:36.937Z,73.01
2023-03-12T19:24:03.838Z,70.87
2023-03-12T19:26:31.296Z,73.07
2023-03-12T19:28:57.848Z,71.71
2023-03-12T19:31:25.286Z,72.54
2023-03-12T19:33:52.652Z,72.75
2023-03-12T19:36:19.582Z,73.10
2023-03-12T19:38:46.155Z,72.16
2023-03-12T19:41:13.431Z,72.91
2023-03-12T19:43:41.604Z,73.98
2023-03-12T19:46:08.365Z,72.27
2023-03-12T19:48:35.344Z,72.95
2023-03-12T19:51:10.864Z,73.25
2023-03-12T19:53:39.173Z,72.96
2023-03-12T19:56:06.330Z,70.94
2023-03-12T19:58:33.363Z,72.65
2023-03-12T20:01:00.401Z,73.26
2023-03-12T20:03:30.123Z,72.54
2023-03-12T20:05:56.979Z,74.16
2023-03-12T20:08:30.168Z,73.54
2023-03-12T20:11:08.189Z,74.51
2023-03-12T20:13:35.688Z,74.46
2023-03-12T20:16:04.150Z,73.56
2023-03-12T20:18:31.695Z,73.73
2023-03-12T20:20:58.497Z,73.99
2023-03-12T20:23:25.392Z,73.64
2023-03-12T20:25:52.575Z,74.48
2023-03-12T20:28:19.637Z,75.06
2023-03-12T20:30:46.267Z,75.60
2023-03-12T20:33:13.170Z,76.03
2023-03-12T20:35:40.083Z,76.79
2023-03-12T20:38:07.530Z,74.71
2023-03-12T20:40:34.776Z,75.24
2023-03-12T20:43:04.997Z,78.28
2023-03-12T20:45:33.341Z,78.80
2023-03-12T20:48:00.984Z,77.51
2023-03-12T20:50:28.258Z,77.00
2023-03-12T20:52:55.674Z,76.89
2023-03-12T20:55:22.980Z,77.89
2023-03-12T20:57:50.761Z,77.84
2023-03-12T21:00:18.124Z,78.21
2023-03-12T21:02:45.476Z,77.08
2023-03-12T21:05:13.639Z,77.10
2023-03-12T21:07:41.413Z,75.45
2023-03-12T21:10:09.388Z,77.48
2023-03-12T21:12:39.563Z,75.49
2023-03-12T21:15:12.280Z,76.03
2023-03-12T21:17:40.569Z,77.70
2023-03-12T21:20:14.627Z,77.99
2023-03-12T21:22:43.287Z,77.67
2023-03-12T21:25:10.860Z,78.87
2023-03-12T21:27:49.922Z,77.56
2023-03-12T21:30:18.280Z,78.59
2023-03-12T21:32:45.256Z,78.62
2023-03-12T21:35:12.296Z,78.63
2023-03-12T21:37:40.629Z,78.88
2023-03-12T21:40:08.968Z,79.28
2023-03-12T21:42:36.719Z,76.80
2023-03-12T21:45:05.134Z,77.81
2023-03-12T21:47:32.468Z,76.83
2023-03-12T21:49:59.667Z,75.22
2023-03-12T21:52:26.468Z,76.13
2023-03-12T21:54:53.309Z,77.06
2023-03-12T21:57:20.254Z,77.44
2023-03-12T21:59:47.361Z,76.54
2023-03-12T22:02:16.068Z,73.99
2023-03-12T22:04:43.138Z,74.49
2023-03-12T22:07:09.868Z,76.33
2023-03-12T22:09:36.892Z,75.25
2023-03-12T22:12:03.969Z,75.95
2023-03-12T22:14:31.045Z,76.34
2023-03-12T22:16:58.022Z,77.23
2023-03-12T22:19:25.005Z,77.32
2023-03-12T22:21:52.121Z,78.41
2023-03-12T22:24:18.946Z,77.91
2023-03-12T22:26:46.139Z,77.27
2023-03-12T22:29:13.012Z,77.71
2023-03-12T22:31:39.636Z,78.74
2023-03-12T22:34:06.700Z,78.78
2023-03-12T22:36:33.614Z,78.96
2023-03-12T22:39:00.314Z,78.03
2023-03-12T22:41:29.028Z,79.06
2023-03-12T22:44:00.984Z,76.37
2023-03-12T22:46:28.505Z,75.38
2023-03-12T22:48:58.970Z,75.78
2023-03-12T22:51:27.733Z,77.26
2023-03-12T22:53:55.230Z,77.40
2023-03-12T22:56:22.643Z,77.71
2023-03-12T22:58:49.937Z,77.38
2023-03-12T23:01:19.811Z,77.45
2023-03-12T23:03:47.717Z,78.68
2023-03-12T23:06:16.072Z,79.47
2023-03-12T23:08:43.300Z,78.71
2023-03-12T23:11:11.873Z,79.16
2023-03-12T23:13:41.620Z,78.90
2023-03-12T23:16:14.770Z,79.87
2023-03-12T23:18:42.828Z,79.28
2023-03-12T23:21:12.437Z,78.86
2023-03-12T23:23:41.967Z,76.86
2023-03-12T23:26:12.985Z,77.17
2023-03-12T23:28:41.056Z,79.17
2023-03-12T23:31:09.259Z,77.63
2023-03-12T23:33:37.140Z,78.90
2023-03-12T23:36:10.526Z,77.88
2023-03-12T23:38:37.925Z,78.07
2023-03-12T23:41:06.083Z,79.74
2023-03-12T23:43:33.956Z,76.96
2023-03-12T23:46:03.485Z,77.92
2023-03-12T23:48:32.564Z,78.90
2023-03-12T23:51:08.622Z,79.27
2023-03-12T23:53:36.874Z,79.54
2023-03-12T23:56:06.593Z,76.20
2023-03-12T23:58:35.548Z,78.09
